sensor_id;sensor_type;location;lat;lon;timestamp;temperature;humidity
14877;DHT22;22152;48.158;17.118;2023-02-28T00:00:24;3.50;56.60
14877;DHT22;22152;48.158;17.118;2023-02-28T00:02:50;3.60;56.50
14877;DHT22;22152;48.158;17.118;2023-02-28T00:05:19;3.50;56.60
14877;DHT22;22152;48.158;17.118;2023-02-28T00:07:47;3.50;56.80
14877;DHT22;22152;48.158;17.118;2023-02-28T00:10:16;3.40;56.20
14877;DHT22;22152;48.158;17.118;2023-02-28T00:12:49;3.40;56.30
14877;DHT22;22152;48.158;17.118;2023-02-28T00:15:17;3.30;55.80
14877;DHT22;22152;48.158;17.118;2023-02-28T00:17:43;3.30;54.90
14877;DHT22;22152;48.158;17.118;2023-02-28T00:20:10;3.40;53.60
14877;DHT22;22152;48.158;17.118;2023-02-28T00:22:39;3.50;52.90
14877;DHT22;22152;48.158;17.118;2023-02-28T00:25:07;3.50;52.80
14877;DHT22;22152;48.158;17.118;2023-02-28T00:27:35;3.60;52.70
14877;DHT22;22152;48.158;17.118;2023-02-28T00:30:04;3.70;52.10
14877;DHT22;22152;48.158;17.118;2023-02-28T00:32:33;3.70;51.20
14877;DHT22;22152;48.158;17.118;2023-02-28T00:35:01;3.70;50.20
14877;DHT22;22152;48.158;17.118;2023-02-28T00:37:27;3.60;50.00
14877;DHT22;22152;48.158;17.118;2023-02-28T00:39:53;3.70;50.10
14877;DHT22;22152;48.158;17.118;2023-02-28T00:42:19;3.80;50.10
14877;DHT22;22152;48.158;17.118;2023-02-28T00:44:47;3.90;49.80
14877;DHT22;22152;48.158;17.118;2023-02-28T00:47:13;3.90;49.40
14877;DHT22;22152;48.158;17.118;2023-02-28T00:49:39;3.90;49.20
14877;DHT22;22152;48.158;17.118;2023-02-28T00:52:04;3.80;49.10
14877;DHT22;22152;48.158;17.118;2023-02-28T00:54:30;3.90;49.50
14877;DHT22;22152;48.158;17.118;2023-02-28T00:56:56;3.90;49.40
14877;DHT22;22152;48.158;17.118;2023-02-28T00:59:22;3.90;49.20
14877;DHT22;22152;48.158;17.118;2023-02-28T01:01:48;4.00;49.40
14877;DHT22;22152;48.158;17.118;2023-02-28T01:04:14;4.00;49.40
14877;DHT22;22152;48.158;17.118;2023-02-28T01:06:40;4.00;49.40
14877;DHT22;22152;48.158;17.118;2023-02-28T01:09:10;3.90;49.20
14877;DHT22;22152;48.158;17.118;2023-02-28T01:11:37;3.80;49.10
14877;DHT22;22152;48.158;17.118;2023-02-28T01:14:03;3.70;49.40
14877;DHT22;22152;48.158;17.118;2023-02-28T01:16:30;3.70;49.30
14877;DHT22;22152;48.158;17.118;2023-02-28T01:18:56;3.60;49.30
14877;DHT22;22152;48.158;17.118;2023-02-28T01:21:23;3.60;49.50
14877;DHT22;22152;48.158;17.118;2023-02-28T01:23:49;3.60;49.60
14877;DHT22;22152;48.158;17.118;2023-02-28T01:26:21;3.50;49.50
14877;DHT22;22152;48.158;17.118;2023-02-28T01:28:49;3.50;49.80
14877;DHT22;22152;48.158;17.118;2023-02-28T01:31:16;3.50;49.90
14877;DHT22;22152;48.158;17.118;2023-02-28T01:33:43;3.50;49.80
14877;DHT22;22152;48.158;17.118;2023-02-28T01:36:15;3.60;49.80
14877;DHT22;22152;48.158;17.118;2023-02-28T01:38:43;3.50;49.80
14877;DHT22;22152;48.158;17.118;2023-02-28T01:41:17;3.60;49.80
14877;DHT22;22152;48.158;17.118;2023-02-28T01:46:12;3.60;49.50
14877;DHT22;22152;48.158;17.118;2023-02-28T01:48:53;3.60;49.80
14877;DHT22;22152;48.158;17.118;2023-02-28T01:51:29;3.60;49.90
14877;DHT22;22152;48.158;17.118;2023-02-28T01:54:09;3.70;49.70
14877;DHT22;22152;48.158;17.118;2023-02-28T01:56:44;3.60;49.70
14877;DHT22;22152;48.158;17.118;2023-02-28T01:59:14;3.60;49.80
14877;DHT22;22152;48.158;17.118;2023-02-28T02:01:49;3.70;50.10
14877;DHT22;22152;48.158;17.118;2023-02-28T02:04:15;3.80;50.10
14877;DHT22;22152;48.158;17.118;2023-02-28T02:06:44;3.80;50.10
14877;DHT22;22152;48.158;17.118;2023-02-28T02:09:12;3.90;50.10
14877;DHT22;22152;48.158;17.118;2023-02-28T02:11:40;4.00;49.90
14877;DHT22;22152;48.158;17.118;2023-02-28T02:14:36;4.00;50.00
14877;DHT22;22152;48.158;17.118;2023-02-28T02:17:31;4.00;50.10
14877;DHT22;22152;48.158;17.118;2023-02-28T02:20:13;4.00;50.00
14877;DHT22;22152;48.158;17.118;2023-02-28T02:29:25;3.80;50.20
14877;DHT22;22152;48.158;17.118;2023-02-28T02:35:24;3.70;50.40
14877;DHT22;22152;48.158;17.118;2023-02-28T02:41:21;3.60;50.80
14877;DHT22;22152;48.158;17.118;2023-02-28T02:44:13;3.60;50.50
14877;DHT22;22152;48.158;17.118;2023-02-28T02:46:47;3.50;50.60
14877;DHT22;22152;48.158;17.118;2023-02-28T02:49:32;3.40;50.80
14877;DHT22;22152;48.158;17.118;2023-02-28T02:52:07;3.30;51.10
14877;DHT22;22152;48.158;17.118;2023-02-28T02:54:43;3.20;51.30
14877;DHT22;22152;48.158;17.118;2023-02-28T02:57:15;3.10;51.40
14877;DHT22;22152;48.158;17.118;2023-02-28T02:59:52;3.00;51.60
14877;DHT22;22152;48.158;17.118;2023-02-28T03:02:21;2.80;51.80
14877;DHT22;22152;48.158;17.118;2023-02-28T03:05:01;2.80;52.00
14877;DHT22;22152;48.158;17.118;2023-02-28T03:07:30;2.70;52.20
14877;DHT22;22152;48.158;17.118;2023-02-28T03:09:57;2.70;52.30
14877;DHT22;22152;48.158;17.118;2023-02-28T03:12:32;2.60;53.10
14877;DHT22;22152;48.158;17.118;2023-02-28T03:15:21;2.60;52.80
14877;DHT22;22152;48.158;17.118;2023-02-28T03:18:05;2.50;52.90
14877;DHT22;22152;48.158;17.118;2023-02-28T03:24:05;2.20;53.50
14877;DHT22;22152;48.158;17.118;2023-02-28T03:26:38;2.20;54.20
14877;DHT22;22152;48.158;17.118;2023-02-28T03:29:34;2.10;54.30
14877;DHT22;22152;48.158;17.118;2023-02-28T03:32:06;2.10;53.90
14877;DHT22;22152;48.158;17.118;2023-02-28T03:37:42;2.00;54.00
14877;DHT22;22152;48.158;17.118;2023-02-28T03:40:15;2.00;54.30
14877;DHT22;22152;48.158;17.118;2023-02-28T03:42:47;2.00;54.50
14877;DHT22;22152;48.158;17.118;2023-02-28T03:45:18;1.90;54.80
14877;DHT22;22152;48.158;17.118;2023-02-28T03:48:09;1.90;54.80
14877;DHT22;22152;48.158;17.118;2023-02-28T03:50:41;1.90;55.00
14877;DHT22;22152;48.158;17.118;2023-02-28T03:53:13;1.90;55.20
14877;DHT22;22152;48.158;17.118;2023-02-28T03:55:45;1.90;55.30
14877;DHT22;22152;48.158;17.118;2023-02-28T03:58:35;1.90;55.30
14877;DHT22;22152;48.158;17.118;2023-02-28T04:01:27;1.90;55.30
14877;DHT22;22152;48.158;17.118;2023-02-28T04:03:57;1.90;55.30
14877;DHT22;22152;48.158;17.118;2023-02-28T04:06:23;1.80;55.30
14877;DHT22;22152;48.158;17.118;2023-02-28T04:08:50;1.80;55.50
14877;DHT22;22152;48.158;17.118;2023-02-28T04:11:44;1.80;55.70
14877;DHT22;22152;48.158;17.118;2023-02-28T04:14:12;1.70;55.90
14877;DHT22;22152;48.158;17.118;2023-02-28T04:16:40;1.60;56.10
14877;DHT22;22152;48.158;17.118;2023-02-28T04:19:08;1.60;56.30
14877;DHT22;22152;48.158;17.118;2023-02-28T04:21:39;1.70;56.40
14877;DHT22;22152;48.158;17.118;2023-02-28T04:24:12;1.60;56.50
14877;DHT22;22152;48.158;17.118;2023-02-28T04:26:41;1.60;56.60
14877;DHT22;22152;48.158;17.118;2023-02-28T04:29:11;1.60;56.50
14877;DHT22;22152;48.158;17.118;2023-02-28T04:31:38;1.60;56.50
14877;DHT22;22152;48.158;17.118;2023-02-28T04:34:04;1.60;56.50
14877;DHT22;22152;48.158;17.118;2023-02-28T04:36:30;1.60;56.50
14877;DHT22;22152;48.158;17.118;2023-02-28T04:38:56;1.60;56.40
14877;DHT22;22152;48.158;17.118;2023-02-28T04:41:23;1.70;56.20
14877;DHT22;22152;48.158;17.118;2023-02-28T04:43:50;1.70;56.80
14877;DHT22;22152;48.158;17.118;2023-02-28T04:46:17;1.80;56.10
14877;DHT22;22152;48.158;17.118;2023-02-28T04:48:43;1.80;56.00
14877;DHT22;22152;48.158;17.118;2023-02-28T04:51:12;1.70;55.80
14877;DHT22;22152;48.158;17.118;2023-02-28T04:53:40;1.80;56.00
14877;DHT22;22152;48.158;17.118;2023-02-28T04:56:07;1.80;56.00
14877;DHT22;22152;48.158;17.118;2023-02-28T04:58:35;1.70;55.80
14877;DHT22;22152;48.158;17.118;2023-02-28T05:03:53;1.70;55.80
14877;DHT22;22152;48.158;17.118;2023-02-28T05:06:21;1.80;55.80
14877;DHT22;22152;48.158;17.118;2023-02-28T05:08:49;1.70;55.70
14877;DHT22;22152;48.158;17.118;2023-02-28T05:11:23;1.70;55.80
14877;DHT22;22152;48.158;17.118;2023-02-28T05:13:55;1.70;56.00
14877;DHT22;22152;48.158;17.118;2023-02-28T05:16:21;1.70;56.10
14877;DHT22;22152;48.158;17.118;2023-02-28T05:18:47;1.60;56.20
14877;DHT22;22152;48.158;17.118;2023-02-28T05:24:03;1.50;56.80
14877;DHT22;22152;48.158;17.118;2023-02-28T05:26:31;1.40;56.80
14877;DHT22;22152;48.158;17.118;2023-02-28T05:29:00;1.40;57.00
14877;DHT22;22152;48.158;17.118;2023-02-28T05:31:26;1.40;57.10
14877;DHT22;22152;48.158;17.118;2023-02-28T05:33:52;1.50;57.10
14877;DHT22;22152;48.158;17.118;2023-02-28T05:36:19;1.60;57.20
14877;DHT22;22152;48.158;17.118;2023-02-28T05:38:49;1.60;57.20
14877;DHT22;22152;48.158;17.118;2023-02-28T05:41:17;1.70;57.00
14877;DHT22;22152;48.158;17.118;2023-02-28T05:43:45;1.80;56.90
14877;DHT22;22152;48.158;17.118;2023-02-28T05:46:13;1.90;56.90
14877;DHT22;22152;48.158;17.118;2023-02-28T05:48:40;2.00;56.60
14877;DHT22;22152;48.158;17.118;2023-02-28T05:51:07;2.10;56.30
14877;DHT22;22152;48.158;17.118;2023-02-28T05:53:34;2.10;55.80
14877;DHT22;22152;48.158;17.118;2023-02-28T05:56:00;2.20;55.70
14877;DHT22;22152;48.158;17.118;2023-02-28T05:58:28;2.30;56.00
14877;DHT22;22152;48.158;17.118;2023-02-28T06:01:00;2.50;55.30
14877;DHT22;22152;48.158;17.118;2023-02-28T06:03:37;2.60;55.10
14877;DHT22;22152;48.158;17.118;2023-02-28T06:06:03;2.80;54.80
14877;DHT22;22152;48.158;17.118;2023-02-28T06:08:29;2.80;54.40
14877;DHT22;22152;48.158;17.118;2023-02-28T06:10:54;2.90;54.20
14877;DHT22;22152;48.158;17.118;2023-02-28T06:13:20;2.90;53.90
14877;DHT22;22152;48.158;17.118;2023-02-28T06:15:46;3.10;53.80
14877;DHT22;22152;48.158;17.118;2023-02-28T06:18:12;3.10;53.60
14877;DHT22;22152;48.158;17.118;2023-02-28T06:20:38;3.30;53.40
14877;DHT22;22152;48.158;17.118;2023-02-28T06:23:04;3.40;53.70
14877;DHT22;22152;48.158;17.118;2023-02-28T06:25:29;3.40;52.80
14877;DHT22;22152;48.158;17.118;2023-02-28T06:27:55;3.50;52.60
14877;DHT22;22152;48.158;17.118;2023-02-28T06:30:21;3.70;52.60
14877;DHT22;22152;48.158;17.118;2023-02-28T06:32:53;3.80;52.20
14877;DHT22;22152;48.158;17.118;2023-02-28T06:35:19;4.00;52.00
14877;DHT22;22152;48.158;17.118;2023-02-28T06:37:45;4.00;51.30
14877;DHT22;22152;48.158;17.118;2023-02-28T06:40:12;4.10;51.30
14877;DHT22;22152;48.158;17.118;2023-02-28T06:42:38;4.20;50.90
14877;DHT22;22152;48.158;17.118;2023-02-28T06:45:05;4.20;51.00
14877;DHT22;22152;48.158;17.118;2023-02-28T06:47:35;4.30;50.80
14877;DHT22;22152;48.158;17.118;2023-02-28T06:50:06;4.40;50.50
14877;DHT22;22152;48.158;17.118;2023-02-28T06:52:34;4.50;50.30
14877;DHT22;22152;48.158;17.118;2023-02-28T06:55:06;4.70;50.30
14877;DHT22;22152;48.158;17.118;2023-02-28T06:57:34;4.90;50.30
14877;DHT22;22152;48.158;17.118;2023-02-28T07:00:03;5.00;49.10
14877;DHT22;22152;48.158;17.118;2023-02-28T07:02:32;5.10;48.90
14877;DHT22;22152;48.158;17.118;2023-02-28T07:04:59;5.30;48.70
14877;DHT22;22152;48.158;17.118;2023-02-28T07:07:24;5.40;49.10
14877;DHT22;22152;48.158;17.118;2023-02-28T07:09:50;5.50;48.80
14877;DHT22;22152;48.158;17.118;2023-02-28T07:12:16;5.60;47.80
14877;DHT22;22152;48.158;17.118;2023-02-28T07:14:42;5.60;48.40
14877;DHT22;22152;48.158;17.118;2023-02-28T07:17:09;5.60;47.70
14877;DHT22;22152;48.158;17.118;2023-02-28T07:19:38;5.60;47.50
14877;DHT22;22152;48.158;17.118;2023-02-28T07:22:05;5.80;47.80
14877;DHT22;22152;48.158;17.118;2023-02-28T07:24:31;6.00;48.10
14877;DHT22;22152;48.158;17.118;2023-02-28T07:26:57;6.00;47.40
14877;DHT22;22152;48.158;17.118;2023-02-28T07:29:23;6.10;46.90
14877;DHT22;22152;48.158;17.118;2023-02-28T07:31:49;6.10;46.90
14877;DHT22;22152;48.158;17.118;2023-02-28T07:34:19;6.10;46.90
14877;DHT22;22152;48.158;17.118;2023-02-28T07:36:46;6.10;46.80
14877;DHT22;22152;48.158;17.118;2023-02-28T07:39:17;6.00;46.80
14877;DHT22;22152;48.158;17.118;2023-02-28T07:41:43;6.10;47.10
14877;DHT22;22152;48.158;17.118;2023-02-28T07:44:10;6.10;47.10
14877;DHT22;22152;48.158;17.118;2023-02-28T07:46:37;6.00;46.80
14877;DHT22;22152;48.158;17.118;2023-02-28T07:49:03;5.70;47.10
14877;DHT22;22152;48.158;17.118;2023-02-28T07:51:29;5.60;47.40
14877;DHT22;22152;48.158;17.118;2023-02-28T07:53:56;5.40;47.70
14877;DHT22;22152;48.158;17.118;2023-02-28T07:56:22;5.30;47.90
14877;DHT22;22152;48.158;17.118;2023-02-28T07:58:48;5.20;48.10
14877;DHT22;22152;48.158;17.118;2023-02-28T08:01:14;5.20;48.60
14877;DHT22;22152;48.158;17.118;2023-02-28T08:03:40;5.20;48.70
14877;DHT22;22152;48.158;17.118;2023-02-28T08:06:08;5.30;48.90
14877;DHT22;22152;48.158;17.118;2023-02-28T08:08:41;5.40;49.00
14877;DHT22;22152;48.158;17.118;2023-02-28T08:11:07;5.40;49.00
14877;DHT22;22152;48.158;17.118;2023-02-28T08:13:33;5.50;49.00
14877;DHT22;22152;48.158;17.118;2023-02-28T08:16:01;5.60;48.90
14877;DHT22;22152;48.158;17.118;2023-02-28T08:18:59;5.50;48.60
14877;DHT22;22152;48.158;17.118;2023-02-28T08:21:45;5.50;48.60
14877;DHT22;22152;48.158;17.118;2023-02-28T08:24:11;5.40;48.80
14877;DHT22;22152;48.158;17.118;2023-02-28T08:26:37;5.40;49.10
14877;DHT22;22152;48.158;17.118;2023-02-28T08:29:02;5.50;49.20
14877;DHT22;22152;48.158;17.118;2023-02-28T08:31:28;5.60;49.30
14877;DHT22;22152;48.158;17.118;2023-02-28T08:33:54;5.60;49.40
14877;DHT22;22152;48.158;17.118;2023-02-28T08:36:23;5.60;49.50
14877;DHT22;22152;48.158;17.118;2023-02-28T08:38:49;5.70;49.40
14877;DHT22;22152;48.158;17.118;2023-02-28T08:41:15;5.60;49.50
14877;DHT22;22152;48.158;17.118;2023-02-28T08:43:41;5.70;49.60
14877;DHT22;22152;48.158;17.118;2023-02-28T08:46:11;5.80;49.70
14877;DHT22;22152;48.158;17.118;2023-02-28T08:48:39;6.00;49.60
14877;DHT22;22152;48.158;17.118;2023-02-28T08:51:12;6.20;49.40
14877;DHT22;22152;48.158;17.118;2023-02-28T08:53:39;6.30;49.00
14877;DHT22;22152;48.158;17.118;2023-02-28T08:56:14;6.40;48.70
14877;DHT22;22152;48.158;17.118;2023-02-28T08:58:42;6.50;48.70
14877;DHT22;22152;48.158;17.118;2023-02-28T09:01:14;6.40;48.70
14877;DHT22;22152;48.158;17.118;2023-02-28T09:03:42;6.40;49.00
14877;DHT22;22152;48.158;17.118;2023-02-28T09:06:09;6.40;49.10
14877;DHT22;22152;48.158;17.118;2023-02-28T09:08:46;6.50;49.00
14877;DHT22;22152;48.158;17.118;2023-02-28T09:11:33;6.60;49.00
14877;DHT22;22152;48.158;17.118;2023-02-28T09:14:01;6.70;48.80
14877;DHT22;22152;48.158;17.118;2023-02-28T09:16:37;6.90;48.70
14877;DHT22;22152;48.158;17.118;2023-02-28T09:19:03;7.10;48.50
14877;DHT22;22152;48.158;17.118;2023-02-28T09:21:29;7.20;48.10
14877;DHT22;22152;48.158;17.118;2023-02-28T09:24:05;7.20;47.90
14877;DHT22;22152;48.158;17.118;2023-02-28T09:26:31;7.30;47.90
14877;DHT22;22152;48.158;17.118;2023-02-28T09:28:57;7.50;47.60
14877;DHT22;22152;48.158;17.118;2023-02-28T09:31:33;7.70;47.40
14877;DHT22;22152;48.158;17.118;2023-02-28T09:33:59;7.70;47.00
14877;DHT22;22152;48.158;17.118;2023-02-28T09:36:28;7.80;47.20
14877;DHT22;22152;48.158;17.118;2023-02-28T09:38:55;8.00;47.00
14877;DHT22;22152;48.158;17.118;2023-02-28T09:41:37;8.20;46.60
14877;DHT22;22152;48.158;17.118;2023-02-28T09:52:49;8.60;45.40
14877;DHT22;22152;48.158;17.118;2023-02-28T09:58:00;8.50;45.10
14877;DHT22;22152;48.158;17.118;2023-02-28T10:00:32;8.40;45.40
14877;DHT22;22152;48.158;17.118;2023-02-28T10:03:23;8.60;45.60
14877;DHT22;22152;48.158;17.118;2023-02-28T10:06:17;8.80;45.30
14877;DHT22;22152;48.158;17.118;2023-02-28T10:08:52;9.00;45.10
14877;DHT22;22152;48.158;17.118;2023-02-28T10:11:23;9.10;44.70
14877;DHT22;22152;48.158;17.118;2023-02-28T10:14:01;9.30;44.70
14877;DHT22;22152;48.158;17.118;2023-02-28T10:16:34;9.40;43.70
14877;DHT22;22152;48.158;17.118;2023-02-28T10:19:11;9.50;43.20
14877;DHT22;22152;48.158;17.118;2023-02-28T10:22:00;9.60;43.00
14877;DHT22;22152;48.158;17.118;2023-02-28T10:24:48;9.60;43.00
14877;DHT22;22152;48.158;17.118;2023-02-28T10:27:21;9.50;43.10
14877;DHT22;22152;48.158;17.118;2023-02-28T10:29:50;9.50;42.90
14877;DHT22;22152;48.158;17.118;2023-02-28T10:32:21;9.50;42.90
14877;DHT22;22152;48.158;17.118;2023-02-28T10:34:57;9.70;42.90
14877;DHT22;22152;48.158;17.118;2023-02-28T10:37:44;9.70;42.70
14877;DHT22;22152;48.158;17.118;2023-02-28T10:40:33;9.60;42.60
14877;DHT22;22152;48.158;17.118;2023-02-28T10:43:26;9.50;42.60
14877;DHT22;22152;48.158;17.118;2023-02-28T10:46:11;9.40;42.70
14877;DHT22;22152;48.158;17.118;2023-02-28T10:49:17;9.40;42.90
14877;DHT22;22152;48.158;17.118;2023-02-28T10:51:41;9.30;42.70
14877;DHT22;22152;48.158;17.118;2023-02-28T10:54:28;9.30;42.90
14877;DHT22;22152;48.158;17.118;2023-02-28T10:57:22;9.30;42.70
14877;DHT22;22152;48.158;17.118;2023-02-28T10:59:52;9.40;42.80
14877;DHT22;22152;48.158;17.118;2023-02-28T11:02:35;9.50;42.30
14877;DHT22;22152;48.158;17.118;2023-02-28T11:05:27;9.30;42.10
14877;DHT22;22152;48.158;17.118;2023-02-28T11:08:16;9.10;42.40
14877;DHT22;22152;48.158;17.118;2023-02-28T11:11:04;8.80;42.40
14877;DHT22;22152;48.158;17.118;2023-02-28T11:13:34;8.70;42.90
14877;DHT22;22152;48.158;17.118;2023-02-28T11:16:04;8.70;43.10
14877;DHT22;22152;48.158;17.118;2023-02-28T11:18:49;8.70;43.10
14877;DHT22;22152;48.158;17.118;2023-02-28T11:21:23;8.60;43.20
14877;DHT22;22152;48.158;17.118;2023-02-28T11:24:05;8.50;43.40
14877;DHT22;22152;48.158;17.118;2023-02-28T11:26:47;8.50;43.30
14877;DHT22;22152;48.158;17.118;2023-02-28T11:29:25;8.50;43.30
14877;DHT22;22152;48.158;17.118;2023-02-28T11:34:35;8.50;43.10
14877;DHT22;22152;48.158;17.118;2023-02-28T11:37:05;8.40;43.20
14877;DHT22;22152;48.158;17.118;2023-02-28T11:39:43;8.30;43.40
14877;DHT22;22152;48.158;17.118;2023-02-28T11:42:32;8.30;43.80
14877;DHT22;22152;48.158;17.118;2023-02-28T11:48:16;8.20;43.70
14877;DHT22;22152;48.158;17.118;2023-02-28T11:53:31;8.10;43.60
14877;DHT22;22152;48.158;17.118;2023-02-28T11:56:20;8.10;43.60
14877;DHT22;22152;48.158;17.118;2023-02-28T12:14:00;8.00;43.90
14877;DHT22;22152;48.158;17.118;2023-02-28T12:22:12;7.70;44.00
14877;DHT22;22152;48.158;17.118;2023-02-28T12:27:37;7.80;44.10
14877;DHT22;22152;48.158;17.118;2023-02-28T12:32:52;7.80;43.80
14877;DHT22;22152;48.158;17.118;2023-02-28T12:35:40;7.80;44.40
14877;DHT22;22152;48.158;17.118;2023-02-28T12:38:26;7.80;44.20
14877;DHT22;22152;48.158;17.118;2023-02-28T12:41:02;7.70;44.20
14877;DHT22;22152;48.158;17.118;2023-02-28T12:43:34;7.80;44.50
14877;DHT22;22152;48.158;17.118;2023-02-28T12:49:19;7.80;44.20
14877;DHT22;22152;48.158;17.118;2023-02-28T12:51:50;7.80;44.30
14877;DHT22;22152;48.158;17.118;2023-02-28T12:54:39;7.70;44.20
14877;DHT22;22152;48.158;17.118;2023-02-28T13:00:22;7.70;44.20
14877;DHT22;22152;48.158;17.118;2023-02-28T13:03:06;7.50;44.40
14877;DHT22;22152;48.158;17.118;2023-02-28T13:09:03;7.50;44.10
14877;DHT22;22152;48.158;17.118;2023-02-28T13:11:32;7.60;44.30
14877;DHT22;22152;48.158;17.118;2023-02-28T13:14:02;7.60;43.90
14877;DHT22;22152;48.158;17.118;2023-02-28T13:19:45;7.70;43.70
14877;DHT22;22152;48.158;17.118;2023-02-28T13:22:44;7.60;43.70
14877;DHT22;22152;48.158;17.118;2023-02-28T13:27:59;7.70;43.30
14877;DHT22;22152;48.158;17.118;2023-02-28T13:33:35;7.70;43.40
14877;DHT22;22152;48.158;17.118;2023-02-28T13:36:27;7.60;43.60
14877;DHT22;22152;48.158;17.118;2023-02-28T13:39:01;7.60;43.70
14877;DHT22;22152;48.158;17.118;2023-02-28T13:41:49;7.60;43.80
14877;DHT22;22152;48.158;17.118;2023-02-28T13:44:22;7.60;43.90
14877;DHT22;22152;48.158;17.118;2023-02-28T13:54:47;7.50;43.60
14877;DHT22;22152;48.158;17.118;2023-02-28T14:00:47;7.50;43.80
14877;DHT22;22152;48.158;17.118;2023-02-28T14:08:59;7.50;43.70
14877;DHT22;22152;48.158;17.118;2023-02-28T14:11:38;7.60;43.00
14877;DHT22;22152;48.158;17.118;2023-02-28T14:14:06;7.50;42.60
14877;DHT22;22152;48.158;17.118;2023-02-28T14:16:59;7.40;42.60
14877;DHT22;22152;48.158;17.118;2023-02-28T14:19:27;7.40;42.50
14877;DHT22;22152;48.158;17.118;2023-02-28T14:28:10;7.40;42.50
14877;DHT22;22152;48.158;17.118;2023-02-28T14:31:00;7.30;42.60
14877;DHT22;22152;48.158;17.118;2023-02-28T14:36:41;7.30;42.80
14877;DHT22;22152;48.158;17.118;2023-02-28T14:39:17;7.30;42.90
14877;DHT22;22152;48.158;17.118;2023-02-28T14:41:45;7.30;42.70
14877;DHT22;22152;48.158;17.118;2023-02-28T14:44:20;7.30;42.60
14877;DHT22;22152;48.158;17.118;2023-02-28T14:46:54;7.30;42.50
14877;DHT22;22152;48.158;17.118;2023-02-28T14:49:41;7.30;42.40
14877;DHT22;22152;48.158;17.118;2023-02-28T14:52:32;7.30;42.40
14877;DHT22;22152;48.158;17.118;2023-02-28T14:55:17;7.40;42.60
14877;DHT22;22152;48.158;17.118;2023-02-28T14:58:03;7.30;42.60
14877;DHT22;22152;48.158;17.118;2023-02-28T15:00:34;7.30;42.40
14877;DHT22;22152;48.158;17.118;2023-02-28T15:06:04;7.20;42.10
14877;DHT22;22152;48.158;17.118;2023-02-28T15:08:42;7.20;42.10
14877;DHT22;22152;48.158;17.118;2023-02-28T15:11:13;7.00;41.90
14877;DHT22;22152;48.158;17.118;2023-02-28T15:13:46;7.00;42.20
14877;DHT22;22152;48.158;17.118;2023-02-28T15:19:55;7.10;42.50
14877;DHT22;22152;48.158;17.118;2023-02-28T15:22:17;7.00;42.50
14877;DHT22;22152;48.158;17.118;2023-02-28T15:24:49;6.90;42.80
14877;DHT22;22152;48.158;17.118;2023-02-28T15:27:21;6.90;42.90
14877;DHT22;22152;48.158;17.118;2023-02-28T15:29:50;6.90;43.20
14877;DHT22;22152;48.158;17.118;2023-02-28T15:32:31;6.80;43.10
14877;DHT22;22152;48.158;17.118;2023-02-28T15:35:17;6.80;44.00
14877;DHT22;22152;48.158;17.118;2023-02-28T15:38:02;6.70;43.50
14877;DHT22;22152;48.158;17.118;2023-02-28T15:40:40;6.70;43.70
14877;DHT22;22152;48.158;17.118;2023-02-28T15:43:16;6.70;43.80
14877;DHT22;22152;48.158;17.118;2023-02-28T15:45:58;6.70;43.90
14877;DHT22;22152;48.158;17.118;2023-02-28T15:48:34;6.60;43.90
14877;DHT22;22152;48.158;17.118;2023-02-28T15:51:08;6.50;43.90
14877;DHT22;22152;48.158;17.118;2023-02-28T15:54:06;6.50;43.90
14877;DHT22;22152;48.158;17.118;2023-02-28T15:56:43;6.50;44.10
14877;DHT22;22152;48.158;17.118;2023-02-28T15:59:30;6.50;44.10
14877;DHT22;22152;48.158;17.118;2023-02-28T16:07:38;6.40;44.60
14877;DHT22;22152;48.158;17.118;2023-02-28T16:10:07;6.30;45.00
14877;DHT22;22152;48.158;17.118;2023-02-28T16:12:37;6.20;45.30
14877;DHT22;22152;48.158;17.118;2023-02-28T16:15:27;6.10;45.70
14877;DHT22;22152;48.158;17.118;2023-02-28T16:17:56;6.10;46.10
14877;DHT22;22152;48.158;17.118;2023-02-28T16:20:28;5.90;46.00
14877;DHT22;22152;48.158;17.118;2023-02-28T16:22:55;5.90;46.20
14877;DHT22;22152;48.158;17.118;2023-02-28T16:25:34;5.90;46.40
14877;DHT22;22152;48.158;17.118;2023-02-28T16:28:02;5.70;46.60
14877;DHT22;22152;48.158;17.118;2023-02-28T16:30:29;5.70;46.70
14877;DHT22;22152;48.158;17.118;2023-02-28T16:32:58;5.60;47.00
14877;DHT22;22152;48.158;17.118;2023-02-28T16:35:25;5.40;47.10
14877;DHT22;22152;48.158;17.118;2023-02-28T16:37:53;5.30;47.40
14877;DHT22;22152;48.158;17.118;2023-02-28T16:40:22;5.30;47.80
14877;DHT22;22152;48.158;17.118;2023-02-28T16:42:53;5.20;48.00
14877;DHT22;22152;48.158;17.118;2023-02-28T16:45:23;5.10;48.30
14877;DHT22;22152;48.158;17.118;2023-02-28T16:47:50;5.00;48.40
14877;DHT22;22152;48.158;17.118;2023-02-28T16:50:22;4.80;48.50
14877;DHT22;22152;48.158;17.118;2023-02-28T16:52:52;4.70;48.80
14877;DHT22;22152;48.158;17.118;2023-02-28T16:55:20;4.60;48.90
14877;DHT22;22152;48.158;17.118;2023-02-28T16:57:58;4.60;49.10
14877;DHT22;22152;48.158;17.118;2023-02-28T17:00:26;4.50;49.20
14877;DHT22;22152;48.158;17.118;2023-02-28T17:02:54;4.50;49.30
14877;DHT22;22152;48.158;17.118;2023-02-28T17:05:21;4.40;49.20
14877;DHT22;22152;48.158;17.118;2023-02-28T17:07:48;4.40;49.30
14877;DHT22;22152;48.158;17.118;2023-02-28T17:10:17;4.40;49.50
14877;DHT22;22152;48.158;17.118;2023-02-28T17:12:48;4.30;49.70
14877;DHT22;22152;48.158;17.118;2023-02-28T17:15:16;4.20;50.00
14877;DHT22;22152;48.158;17.118;2023-02-28T17:17:44;4.20;50.20
14877;DHT22;22152;48.158;17.118;2023-02-28T17:20:19;4.10;50.30
14877;DHT22;22152;48.158;17.118;2023-02-28T17:22:51;4.10;50.40
14877;DHT22;22152;48.158;17.118;2023-02-28T17:25:20;4.00;50.30
14877;DHT22;22152;48.158;17.118;2023-02-28T17:27:47;4.00;50.50
14877;DHT22;22152;48.158;17.118;2023-02-28T17:30:19;3.90;50.60
14877;DHT22;22152;48.158;17.118;2023-02-28T17:32:46;3.90;50.70
14877;DHT22;22152;48.158;17.118;2023-02-28T17:35:12;3.90;50.60
14877;DHT22;22152;48.158;17.118;2023-02-28T17:37:39;4.00;50.70
14877;DHT22;22152;48.158;17.118;2023-02-28T17:40:05;4.00;50.70
14877;DHT22;22152;48.158;17.118;2023-02-28T17:42:32;4.10;50.90
14877;DHT22;22152;48.158;17.118;2023-02-28T17:44:57;4.10;51.00
14877;DHT22;22152;48.158;17.118;2023-02-28T17:47:23;4.20;51.20
14877;DHT22;22152;48.158;17.118;2023-02-28T17:49:49;4.20;51.20
14877;DHT22;22152;48.158;17.118;2023-02-28T17:52:15;4.20;51.20
14877;DHT22;22152;48.158;17.118;2023-02-28T17:54:41;4.20;51.10
14877;DHT22;22152;48.158;17.118;2023-02-28T17:57:13;4.20;51.10
14877;DHT22;22152;48.158;17.118;2023-02-28T17:59:40;4.20;51.20
14877;DHT22;22152;48.158;17.118;2023-02-28T18:02:09;4.10;51.20
14877;DHT22;22152;48.158;17.118;2023-02-28T18:04:37;4.10;51.30
14877;DHT22;22152;48.158;17.118;2023-02-28T18:07:03;4.10;51.40
14877;DHT22;22152;48.158;17.118;2023-02-28T18:09:29;4.10;51.40
14877;DHT22;22152;48.158;17.118;2023-02-28T18:11:55;4.10;51.60